Decoded Metar for KDET (DETROIT in MI, USA) (IATA:DET) | Meteo·Mobile Aviation Weather
aviador You're here:

KDET Decoded Metar

DETROIT in MI, USA
Report Time2019-01-20 09:53:00
UTC Time2019-01-20 10:34:28
Flight Rules vfr VFR
Wind350° at 15 Gusting to 27 kt
W.Decomp.*RWY 33: 13.6 kt HW 6.3 kt RCW
RWY 07: 3.9 kt HW 14.5 kt LCW
W.Rank350° ranks 20
Current wind is above 350° avg. (7.0)
Visibility9999 m
Phenomena:N/A
Clouds:Few 030 Hf
Expected CloudBase > 2,000 ft AGL from Temp-Dew spread
CeilingNone
Temp-11°C (ISA -25)
Dew Point-16°C (67% RH)
AAT-19.8°C
QNH1014 hPa
Density Alt-2,484 ft
Elevation623 ft
Report Wrong Elevation
Raw Report
KDET 200953Z 35015G27KT 10SM FEW030 M11/M16 A2993 RMK AO2 PK WND
35031/0928 SLP147 T11111156=

Extra information for KDET:More info

Metar Taf Metar & Taf Last 4 Metars F.Rules Stats Wind Profile Meteogram Temp Stats Airport Information Weather charts Add Link Nearby VenuesMetar ALERT Operation Metar Decoded Social comments

AIRNAV info for KDET